Hyalite Weather Station

This weather station provides temperature, wind speed, gust or max wind speed, and wind direction at 9982ft near the summit of Flanders Mountain. This data can be used with temperature and precipitation data from the Shower Falls SNOTEL site. If the data has not been updated recently you can view it directly on datagarrison.com

Elevation
9982ft
Jump to table bottom
Date Time Temperature
deg F
RH, % Wind Speed Wind Gust Wind Direction
02/06/23 08:00 11.2 83 14 24 W - 277
02/06/23 07:00 11.2 83 17 32 W - 281
02/06/23 06:00 11.9 83 17 29 W - 275
02/06/23 05:00 12.3 83 17 31 W - 277
02/06/23 04:00 12.4 83 19 38 W - 275
02/06/23 03:00 12.5 83 20 35 W - 277
02/06/23 02:00 12.6 83 21 37 W - 272
02/06/23 01:00 12.8 82 21 36 W - 270
02/06/23 00:00 13.3 81 22 37 W - 267
02/05/23 23:00 14.1 80 20 34 W - 263
02/05/23 22:00 14.3 83 19 35 W - 265
02/05/23 21:00 14.9 82 17 33 W - 265
02/05/23 20:00 15.2 82 17 27 W - 257
02/05/23 19:00 15.9 82 15 25 W - 258
02/05/23 18:00 16.6 82 11 18 W - 251
02/05/23 17:00 17.0 82 13 23 W - 261
02/05/23 16:00 17.4 82 17 25 W - 260
02/05/23 15:00 17.5 82 18 29 SW - 246
02/05/23 14:00 18.9 80 12 28 SW - 227
02/05/23 13:00 19.4 76 17 37 SW - 234
02/05/23 12:00 20.1 74 21 41 SW - 232
02/05/23 11:00 19.6 68 24 44 SW - 230
02/05/23 10:00 21.1 60 31 51 SW - 237
02/05/23 09:00 21.8 58 27 44 SW - 239
02/05/23 08:00 22.0 63 22 41 SW - 236
02/05/23 07:00 22.0 48 18 31 SW - 234
02/05/23 06:00 22.6 48 23 37 SW - 237
02/05/23 05:00 22.4 48 23 35 SW - 236
02/05/23 04:00 25.6 46 24 36 SW - 236
02/05/23 03:00 25.0 48 24 36 SW - 237
02/05/23 02:00 24.0 57 25 37 SW - 237
02/05/23 01:00 22.6 67 21 33 SW - 237
02/05/23 00:00 21.4 72 20 32 SW - 243
02/04/23 23:00 19.7 75 17 27 SW - 241
02/04/23 22:00 18.8 75 14 25 SW - 246
02/04/23 21:00 17.8 77 14 24 SW - 244
02/04/23 20:00 16.6 76 13 24 W - 258
02/04/23 19:00 16.3 77 13 21 W - 257
02/04/23 18:00 16.8 77 10 20 SW - 247
02/04/23 17:00 19.3 73 14 24 W - 253
02/04/23 16:00 19.2 71 14 22 W - 254
02/04/23 15:00 19.5 71 12 20 W - 248
02/04/23 14:00 19.2 71 13 23 SW - 246
02/04/23 13:00 17.9 73 14 29 W - 248
02/04/23 12:00 17.2 74 16 26 W - 250
02/04/23 11:00 16.2 77 14 26 W - 253
02/04/23 10:00 14.9 77 19 30 W - 254
02/04/23 09:00 14.5 77 20 41 W - 250
02/04/23 08:00 14.1 77 18 31 W - 253
02/04/23 07:00 14.5 77 21 36 W - 258